Estación Meteorológica Peña el Pijo (Robertgarden) [ 07/20/18 16:36:35 CEST ]

Fecha Hora Presion(HPa) Temp (°C) Humedad % Rocio (°C) Viento ( m/s) Direccion Lluvia 1Hora(mm) Lluvia 24H(mm) LLuvia Total(mm)
2018-Jan-02 01:01:42 1020.500 5.9 70 0.9         27.97
2018-Jan-02 02:01:42 1019.900 5.8 72 1.2         27.97
2018-Jan-02 03:01:40 1020.100 5.6 74 1.3         27.97
2018-Jan-02 04:01:40 1019.900 5.4 75 1.3         27.97
2018-Jan-02 05:04:12 1019.700 5.1 75 1.0         27.97
2018-Jan-02 06:01:48 1018.900 3.3 75 -0.7         27.97
2018-Jan-02 07:01:42 1018.500 5.4 63 -1.1 1.2 WNW     27.97
2018-Jan-02 08:01:59 1019.200 7.4 47 -3.2         27.97
2018-Jan-02 09:01:44 1019.300 8.1 40 -4.7         27.97
2018-Jan-02 10:01:37 1019.800 11.5 35 -3.6         27.97
2018-Jan-02 11:01:41 1020.400 14.8 30 -2.6         27.97
2018-Jan-02 12:01:43 1020.200 14.9 28 -3.6         27.97
2018-Jan-02 13:01:56 1020.000 15.4 29 -2.6         27.97
2018-Jan-02 14:02:05 1019.700 16.7 29 -1.5 1.7 WNW     27.97
2018-Jan-02 15:01:52 1019.100 17.6 29 -0.7         27.97
2018-Jan-02 16:01:49 1019.400 16.3 33 -0.1         27.97
2018-Jan-02 17:01:52 1019.800 13.7 41 0.6         27.97
2018-Jan-02 18:01:43 1020.200 11.9 49 1.5         27.97
2018-Jan-02 19:01:54 1020.500 9.8 57 1.7         27.97
2018-Jan-02 20:01:49 1020.600 8.9 63 2.2         27.97
2018-Jan-02 21:01:38 1020.700 7.6 68 2.1         27.97
2018-Jan-02 22:01:47 1020.400 5.8 71 1.0         27.97
2018-Jan-02 23:01:44 1020.800 5.4 74 1.1         27.97

Temperatura Máxima:17°    Temperatura Mínima:
Presión Máxima:1020.800 Hpa    Presión Mínima:1018.500 Hpa


Volver